CheckWX is a tool to help pilots better visualize weather data.  It is not intended as a substitute for an official pre-flight weather briefing.

13:24:12 UTC

PTYA METAR
Yap International Airport
Yap Island, Federated States of Micronesia
Current

32 mins ago

PTYA 161252Z VRB06KT 10SM -SHRA SCT016TCU SCT130 BKN300 27/25 A2990 RMK SHRAB50 TCU NE-SE SLP123 T02700249
Observed
Jun-16 @ 12:52 UTC
Wind
  • Variable at 6 KTS
Visibility
16,093 meters
Flight Rules
VFR
Conditions
Light Rain
Cloud Levels
  • Scattered at 1,600' AGL
  • Scattered at 13,000' AGL
  • Broken at 30,000' AGL
Temperature
27°C / 81°F
Dewpoint
25°C / 77°F
Heat Index
31°C / 88°F
Humidity
89%
Altimeter
29.9" Hg
Pressure
1012.52 hPa
Previous

2 hours ago

PTYA 161152Z VRB03KT 12SM SCT016TCU BKN300 27/25 A2988 RMK TCU E SLP120 60000 70013 8/201 T02700249 10314 20269 52020
Observed
Jun-16 @ 11:52 UTC
Wind
  • Variable at 3 KTS
Visibility
19,312 meters
Flight Rules
VFR
Cloud Levels
  • Scattered at 1,600' AGL
  • Broken at 30,000' AGL
Temperature
27°C / 81°F
Dewpoint
25°C / 77°F
Heat Index
31°C / 88°F
Humidity
89%
Altimeter
29.88" Hg
Pressure
1011.82 hPa
24 Hour Rain
0.13"
Previous

3 hours ago

PTYA 161053Z VRB03KT 12SM FEW016 SCT300 28/25 A2987 RMK SLP115 T02750248
Observed
Jun-16 @ 10:53 UTC
Wind
  • Variable at 3 KTS
Visibility
19,312 meters
Flight Rules
VFR
Cloud Levels
  • Few at 1,600' AGL
  • Scattered at 30,000' AGL
Temperature
28°C / 82°F
Dewpoint
25°C / 77°F
Heat Index
32°C / 90°F
Humidity
84%
Altimeter
29.87" Hg
Pressure
1011.52 hPa